Latest Weather Observations for Kingfish B

IDV60801

Issued at 8:05 am EST Wednesday 1 October 2014 (issued every 30 minutes, with the page automatically refreshed every 10 minutes)

About weather observations | Map of weather stations | Latest weather observations for VIC | Other Formats
Station Details ID: 400139 Name: KINGFISH B (PLATFORM) Lat: -38.60 Lon: 148.19 Height: 31.4 m
Data from the previous 72 hours. | See also: Recent months for locations in Victoria
Date/Time
EST
Temp
°C
App
Temp
°C
Dew
Point
Rel
Hum
%
Delta-T
°C
Wind Press
QNH
hPa
Press
MSL
hPa
Rain
since 9 am
mm
Dir
 
Spd
km/h
Gust
km/h
Spd
kts
Gust
kts
01/06:50am 13.8 2.6 4.2 52 4.4 SW 52 63 28 34 1017.0 - -
01/06:40am 13.5 1.5 3.6 51 4.5 SW 56 65 30 35 1016.2 - -
01/06:30am 13.4 1.8 4.0 53 4.3 SW 54 67 29 36 1015.4 - -
01/06:20am 13.4 1.2 3.7 52 4.4 SW 57 65 31 35 1015.1 - -
01/06:10am 13.2 1.2 3.7 52 4.3 SW 56 69 30 37 1014.9 - -
01/06:00am 13.0 0.7 3.2 51 4.4 SW 57 69 31 37 1015.0 - -
01/05:50am 12.9 0.8 3.3 52 4.3 SW 56 67 30 36 1014.6 - -
01/05:40am 12.7 0.4 3.0 51 4.3 SW 57 70 31 38 1014.7 - -
01/05:30am 12.0 -0.3 3.0 54 4.0 SW 57 67 31 36 1014.3 - -
01/05:20am 11.9 -0.8 3.3 55 3.8 SW 59 67 32 36 1014.5 - -
01/05:10am 11.8 -0.2 3.9 58 3.5 SW 56 72 30 39 1014.3 - -
01/05:00am 11.5 -0.1 3.8 59 3.4 SW 54 65 29 35 1014.1 - -
01/04:50am 11.4 -0.6 3.6 58 3.5 SW 56 65 30 35 1013.4 - -
01/04:40am 11.3 -1.4 3.1 57 3.6 SW 59 76 32 41 1013.6 - -
01/04:30am 11.0 -2.0 3.4 59 3.3 SW 61 70 33 38 1012.6 - -
01/04:20am 10.9 -2.6 2.9 58 3.5 SW 63 72 34 39 1012.5 - -
01/04:10am 10.7 -0.5 4.2 64 2.9 SW 52 67 28 36 1012.3 - -
01/04:00am 10.7 -0.1 4.2 64 2.9 SW 50 61 27 33 1012.2 - -
01/03:50am 10.8 -1.4 3.9 62 3.1 SW 57 69 31 37 1012.6 - -
01/03:40am 10.6 -1.0 3.9 63 3.0 SW 54 67 29 36 1011.8 - -
01/03:20am 10.6 -1.7 2.9 59 3.3 SW 57 72 31 39 1011.5 - -
01/03:10am 10.1 -3.2 3.7 64 2.8 SW 63 80 34 43 1011.3 - -
01/03:00am 9.7 -2.8 4.3 69 2.4 SW 59 74 32 40 1011.7 - -
01/02:50am 10.4 -2.8 4.3 66 2.7 SW 63 85 34 46 1011.0 - -
01/02:40am 10.7 -3.0 3.8 62 3.1 SW 65 76 35 41 1012.1 - -
01/02:30am 10.5 -3.8 4.5 66 2.7 SW 69 80 37 43 1011.6 - -
01/02:20am 11.0 -2.9 4.5 64 2.9 SW 67 83 36 45 1010.3 - -
01/02:10am 10.8 -2.1 3.9 62 3.1 SW 61 76 33 41 1010.1 - -
01/02:00am 10.6 -3.4 4.0 63 2.9 SW 67 80 36 43 1009.5 - -
01/01:50am 11.3 -1.5 4.6 63 3.0 SW 61 89 33 48 1009.4 - -
01/01:40am 11.4 -2.2 4.5 62 3.1 WSW 65 80 35 43 1009.1 - -
01/01:30am 11.3 -1.8 4.8 64 3.0 WSW 63 76 34 41 1009.1 - -
01/01:20am 11.2 -0.4 5.6 68 2.6 WSW 56 76 30 41 1009.4 - -
01/01:10am 11.1 -0.2 5.2 67 2.7 WSW 54 69 29 37 1009.4 - -
01/01:00am 10.8 -0.5 5.2 68 2.6 WSW 54 67 29 36 1009.3 - -
01/12:50am 10.8 -1.9 5.3 69 2.5 WSW 61 76 33 41 1009.0 - -
01/12:40am 11.0 -1.3 5.3 68 2.6 WSW 59 74 32 40 1009.4 - -
01/12:30am 11.2 -0.1 5.5 68 2.6 WSW 54 67 29 36 1009.4 - -
01/12:10am 11.0 -0.7 5.3 68 2.6 WSW 56 67 30 36 1009.2 - -
01/12:00am 11.0 -1.3 5.0 66 2.7 WSW 59 70 32 38 1009.1 - -
 
Date/Time
EST
Temp
°C
App
Temp
°C
Dew
Point
Rel
Hum
%
Delta-T
°C
Wind Press
QNH
hPa
Press
MSL
hPa
Rain
since 9 am
mm
Dir
 
Spd
km/h
Gust
km/h
Spd
kts
Gust
kts
30/11:50pm 11.1 -1.6 4.9 65 2.8 WSW 61 76 33 41 1008.7 - -
30/11:40pm 11.3 -1.0 5.1 65 2.8 WSW 59 70 32 38 1008.9 - -
30/11:30pm 11.3 -1.8 5.0 65 2.9 WSW 63 78 34 42 1008.8 - -
30/11:20pm 11.4 -1.7 4.9 64 3.0 WSW 63 80 34 43 1008.8 - -
30/11:10pm 11.5 -2.3 5.1 65 2.9 WSW 67 82 36 44 1008.7 - -
30/11:00pm 12.1 0.3 5.6 64 3.0 WSW 57 80 31 43 1009.0 - -
30/10:50pm 12.1 0.3 5.5 64 3.1 WSW 57 69 31 37 1008.8 - -
30/10:40pm 12.0 0.1 5.4 64 3.1 WSW 57 72 31 39 1008.6 - -
30/10:30pm 12.0 -0.2 5.8 66 2.9 WSW 59 69 32 37 1008.4 - -
30/10:20pm 11.9 0.2 6.0 67 2.8 WSW 57 69 31 37 1008.3 - -
30/10:10pm 11.8 1.0 6.0 67 2.7 WSW 52 65 28 35 1008.4 - -
30/10:00pm 11.5 0.6 5.5 66 2.8 WSW 52 63 28 34 1008.2 - -
30/09:50pm 11.1 1.4 5.6 69 2.5 WSW 46 61 25 33 1008.3 - -
30/09:40pm 10.9 0.2 6.5 74 2.1 WSW 52 67 28 36 1008.3 - -
30/09:30pm 10.7 -0.9 6.6 76 1.9 SW 57 70 31 38 1008.5 - -
30/09:20pm 11.0 -1.0 6.6 74 2.1 SW 59 80 32 43 1008.6 - -
30/09:10pm 11.9 1.5 7.6 75 2.1 SW 52 63 28 34 1008.5 - -
30/09:00pm 11.4 1.2 7.0 74 2.1 WSW 50 57 27 31 1008.4 - -
30/08:50pm 12.2 1.6 7.0 70 2.5 WSW 52 89 28 48 1008.3 - -
30/08:40pm 13.0 2.4 6.9 66 2.9 W 52 63 28 34 1007.8 - -
30/08:30pm 13.0 2.4 6.7 65 3.0 W 52 61 28 33 1007.8 - -
30/08:20pm 13.1 2.5 6.9 66 3.0 W 52 63 28 34 1007.5 - -
30/08:10pm 13.1 2.2 7.1 67 2.9 W 54 63 29 34 1007.8 - -
30/08:00pm 13.1 2.2 7.3 68 2.8 WSW 54 65 29 35 1007.4 - -
30/07:50pm 13.0 2.4 6.9 66 2.9 WSW 52 63 28 34 1007.4 - -
30/07:40pm 12.8 1.4 6.7 66 2.9 WSW 56 65 30 35 1006.6 - -
30/07:30pm 12.9 1.3 6.6 65 3.0 WSW 57 70 31 38 1006.3 - -
30/07:20pm 12.8 -0.4 6.3 64 3.1 WSW 65 78 35 42 1005.6 - -
30/07:10pm 12.6 0.2 6.5 66 2.9 WSW 61 74 33 40 1005.3 - -
30/07:00pm 12.4 0.0 6.5 67 2.8 WSW 61 70 33 38 1005.2 - -
30/06:50pm 12.0 0.3 6.4 68 2.7 WSW 57 69 31 37 1005.6 - -
30/06:40pm 11.6 -0.1 6.1 69 2.6 SW 57 78 31 42 1006.0 - -
30/06:30pm 11.8 -3.0 6.7 71 2.4 SW 74 91 40 49 1005.6 - -
30/06:20pm 12.3 -1.6 7.4 72 2.4 WSW 70 93 38 50 1005.4 - -
30/06:10pm 12.5 -0.9 7.2 70 2.6 WSW 67 80 36 43 1005.2 - -
30/06:00pm 12.5 -1.9 6.9 68 2.7 WSW 72 85 39 46 1005.0 - -
30/05:40pm 11.8 -2.1 7.4 74 2.1 SW 70 85 38 46 1004.4 - -
30/05:30pm 12.1 -3.2 8.0 76 2.0 SW 78 95 42 51 1004.2 - -
30/05:20pm 12.4 -4.2 8.1 75 2.1 SW 85 106 46 57 1003.6 - -
30/05:10pm 12.9 -4.3 8.5 74 2.2 SW 89 109 48 59 1002.9 - -
30/05:00pm 13.4 -3.7 9.1 75 2.2 SW 89 109 48 59 1002.4 - -
30/04:50pm 14.0 -0.1 9.7 75 2.2 SW 74 95 40 51 1002.0 - -
30/04:40pm 14.4 1.3 9.7 73 2.4 SW 69 91 37 49 1001.9 - -
30/04:30pm 15.4 2.4 10.2 71 2.7 SW 69 96 37 52 1002.2 - -
30/04:20pm 16.9 5.0 10.2 64 3.5 SW 63 82 34 44 1002.3 - -
30/04:00pm 20.4 14.2 9.5 49 5.8 NW 32 41 17 22 1000.3 - -
30/03:50pm 20.1 14.8 10.0 52 5.4 NW 28 35 15 19 1000.2 - -
30/03:40pm 21.3 14.0 8.6 44 6.7 NW 37 50 20 27 1000.0 - -
30/03:30pm 21.4 13.7 8.6 44 6.8 WNW 39 52 21 28 1000.0 - -
30/03:20pm 20.0 14.4 10.1 53 5.3 WNW 30 50 16 27 1000.4 - -
30/03:10pm 18.7 14.6 11.5 63 3.9 NW 24 39 13 21 1000.7 - -
30/03:00pm 18.1 15.1 12.0 67 3.4 NNW 19 22 10 12 1000.6 - -
30/02:50pm 17.8 14.9 12.3 70 3.0 NNW 19 22 10 12 1000.5 - -
30/02:40pm 17.8 15.2 12.1 69 3.1 - 17 20 9 11 1000.4 - -
30/02:20pm 17.9 15.7 12.0 68 3.3 N 15 17 8 9 1000.6 - -
30/02:10pm 18.2 16.4 12.1 67 3.4 N 13 15 7 8 1000.7 - -
30/02:00pm 18.4 16.6 12.0 66 3.5 NNE 13 19 7 10 1000.7 - -
30/01:50pm 18.5 17.6 11.3 63 3.9 NNE 7 9 4 5 1001.1 - -
30/01:40pm 18.6 18.4 10.4 59 4.4 NNW 2 6 1 3 1001.4 - -
30/01:30pm 18.8 17.8 10.2 57 4.6 N 6 11 3 6 1001.6 - -
30/01:20pm 19.0 18.0 10.4 57 4.6 N 6 11 3 6 1001.9 - -
30/01:10pm 19.1 18.1 10.4 57 4.7 N 6 11 3 6 1002.1 - -
30/01:00pm 19.3 19.3 11.2 59 4.4 WSW 2 7 1 4 1002.5 - -
30/12:50pm 19.3 18.7 10.4 56 4.8 WSW 4 9 2 5 1002.8 - -
30/12:40pm 19.4 19.0 9.6 53 5.2 WSW 2 4 1 2 1003.0 - -
30/12:30pm 19.3 18.7 9.1 51 5.4 WSW 2 4 1 2 1003.1 - -
30/12:20pm 19.5 18.9 9.0 50 5.5 W 2 4 1 2 1003.0 - -
30/12:10pm 19.0 18.5 9.3 53 5.1 W 2 4 1 2 1003.1 - -
30/12:00pm 19.0 18.8 9.2 53 5.2 W 0 2 0 1 1003.4 - -
30/11:50am 18.5 18.7 10.4 59 4.3 W 0 2 0 1 1003.8 - -
30/11:40am 19.7 18.9 9.5 51 5.4 W 4 7 2 4 1004.1 - -
30/11:30am 19.4 17.7 8.5 49 5.7 W 7 9 4 5 1004.3 - -
30/11:20am 19.1 17.5 8.6 50 5.5 W 7 9 4 5 1004.6 - -
30/11:10am 19.2 18.4 9.6 53 5.1 W 4 9 2 5 1004.9 - -
30/11:00am 18.4 17.6 9.5 56 4.7 WNW 4 7 2 4 1005.2 - -
30/10:50am 17.9 17.1 9.6 58 4.4 NW 4 6 2 3 1005.5 - -
30/10:40am 17.8 17.3 9.5 58 4.4 NW 2 4 1 2 1005.7 - -
30/10:30am 17.8 17.0 9.8 59 4.2 NW 4 4 2 2 1005.9 - -
30/10:20am 18.0 17.2 9.8 58 4.3 NNW 4 7 2 4 1006.1 - -
30/10:10am 18.8 18.1 10.1 57 4.7 NW 4 7 2 4 1006.3 - -
30/10:00am 19.1 18.7 9.9 55 4.9 WNW 2 4 1 2 1006.6 - -
30/09:50am 18.9 18.6 10.2 57 4.7 WNW 2 4 1 2 1006.6 - -
30/09:40am 18.6 18.1 10.6 59 4.3 WNW 4 6 2 3 1006.8 - -
30/09:30am 18.6 18.1 10.7 60 4.3 W 4 6 2 3 1006.9 - -
30/09:20am 18.4 17.4 10.2 59 4.4 WSW 6 9 3 5 1007.0 - -
30/09:10am 18.7 17.1 10.1 57 4.6 WSW 9 13 5 7 1007.2 - -
30/09:00am 18.8 16.5 10.3 57 4.6 WSW 13 19 7 10 1007.4 - -
30/08:50am 18.9 15.5 10.6 58 4.5 WSW 19 22 10 12 1007.7 - -
30/08:40am 19.3 16.3 10.8 58 4.6 WSW 17 24 9 13 1007.8 - -
30/08:30am 19.4 16.0 11.2 59 4.5 WSW 20 26 11 14 1008.0 - -
30/08:20am 18.9 16.5 11.4 61 4.1 WNW 15 26 8 14 1007.9 - -
30/08:10am 18.8 15.3 11.0 60 4.2 NW 20 26 11 14 1007.7 - -
30/07:50am 18.1 14.1 10.6 61 4.0 NNW 22 30 12 16 1007.5 - -
30/07:40am 18.0 13.3 10.6 62 4.0 N 26 32 14 17 1007.4 - -
30/07:30am 18.1 13.4 10.7 62 4.0 N 26 30 14 16 1007.5 - -
30/07:20am 18.3 13.6 10.5 60 4.2 N 26 30 14 16 1007.6 - -
30/07:10am 18.4 13.2 10.2 59 4.4 N 28 32 15 17 1007.6 - -
30/07:00am 18.5 13.6 10.1 58 4.5 N 26 32 14 17 1007.6 - -
30/06:50am 18.6 14.2 10.5 59 4.4 N 24 30 13 16 1007.6 - -
30/06:40am 18.7 14.4 10.8 60 4.3 N 24 28 13 15 1007.6 - -
30/06:30am 18.6 14.3 10.9 61 4.2 N 24 30 13 16 1007.6 - -
30/06:20am 18.5 13.9 11.0 61 4.1 N 26 30 14 16 1007.6 - -
30/06:10am 18.5 14.3 11.1 62 4.0 N 24 30 13 16 1007.7 - -
30/06:00am 18.4 13.4 11.1 62 4.0 N 28 32 15 17 1007.8 - -
30/05:50am 18.3 13.3 11.0 62 4.0 N 28 32 15 17 1007.9 - -
30/05:40am 17.9 13.3 11.0 64 3.7 N 26 30 14 16 1008.0 - -
30/05:30am 17.5 12.9 11.2 66 3.4 N 26 28 14 15 1008.0 - -
30/05:20am 16.8 12.3 11.4 70 2.9 N 26 30 14 16 1008.0 - -
30/05:10am 16.3 11.8 11.5 73 2.6 N 26 28 14 15 1008.0 - -
30/05:00am 16.0 11.5 11.4 74 2.5 N 26 30 14 16 1008.0 - -
30/04:50am 16.0 11.4 11.2 73 2.6 N 26 30 14 16 1008.0 - -
30/04:40am 16.2 11.9 10.9 71 2.8 N 24 30 13 16 1008.0 - -
30/04:20am 16.5 12.5 10.4 67 3.2 NNW 22 30 12 16 1008.2 - -
30/04:10am 16.7 11.9 10.3 66 3.4 NW 26 28 14 15 1008.2 - -
30/04:00am 16.4 12.1 10.9 70 2.9 NW 24 28 13 15 1008.3 - -
30/03:50am 15.9 12.1 11.1 73 2.6 NW 22 26 12 14 1008.3 - -
30/03:40am 15.8 12.3 11.0 73 2.6 NNW 20 26 11 14 1008.4 - -
30/03:30am 15.9 12.0 10.8 71 2.7 NNW 22 26 12 14 1008.4 - -
30/03:20am 15.8 11.9 10.8 72 2.7 NNW 22 26 12 14 1008.5 - -
30/03:10am 15.7 11.8 10.9 73 2.6 NW 22 24 12 13 1008.6 - -
30/02:50am 15.2 11.8 11.2 77 2.1 NNW 20 24 11 13 1008.8 - -
30/02:40am 15.0 12.2 11.4 79 1.9 NNW 17 20 9 11 1008.9 - -
30/02:30am 14.9 12.6 11.6 80 1.8 NNW 15 17 8 9 1009.1 - -
30/02:20am 14.8 12.5 11.8 82 1.6 NNW 15 17 8 9 1009.3 - -
30/02:10am 14.7 12.4 11.8 83 1.6 NNW 15 19 8 10 1009.4 - -
30/02:00am 14.5 12.2 11.8 84 1.5 NNW 15 17 8 9 1009.6 - -
30/01:50am 14.5 12.2 11.8 84 1.5 NNW 15 19 8 10 1009.8 - -
30/01:40am 14.5 11.8 11.8 84 1.5 N 17 20 9 11 1009.9 - -
30/01:30am 14.5 11.8 11.8 84 1.5 N 17 20 9 11 1009.9 - -
30/01:20am 14.6 12.3 11.8 83 1.5 N 15 19 8 10 1010.1 - -
30/01:10am 14.7 12.1 11.9 83 1.5 N 17 20 9 11 1010.2 - -
30/01:00am 14.8 12.5 11.9 83 1.6 N 15 20 8 11 1010.3 - -
30/12:50am 14.8 12.9 11.9 83 1.6 N 13 19 7 10 1010.4 - -
30/12:40am 14.8 12.9 11.9 83 1.6 N 13 19 7 10 1010.5 - -
30/12:30am 15.0 12.8 12.1 83 1.6 - 15 19 8 10 1010.6 - -
30/12:20am 15.1 12.9 12.1 82 1.6 N 15 17 8 9 1010.6 - -
30/12:10am 15.2 12.7 12.2 82 1.6 N 17 19 9 10 1010.8 - -
30/12:00am 15.4 12.5 12.3 82 1.7 N 19 22 10 12 1010.9 - -
 
Date/Time
EST
Temp
°C
App
Temp
°C
Dew
Point
Rel
Hum
%
Delta-T
°C
Wind Press
QNH
hPa
Press
MSL
hPa
Rain
since 9 am
mm
Dir
 
Spd
km/h
Gust
km/h
Spd
kts
Gust
kts
29/11:50pm 15.4 12.5 12.2 81 1.7 NNE 19 24 10 13 1011.0 - -
29/11:40pm 15.4 12.2 12.0 80 1.8 NNE 20 22 11 12 1011.1 - -
29/11:30pm 15.4 12.4 11.9 79 1.9 NNE 19 20 10 11 1011.2 - -
29/11:20pm 15.4 12.1 11.6 78 2.0 NNE 20 24 11 13 1011.3 - -
29/11:10pm 15.4 12.0 11.4 77 2.1 NNE 20 24 11 13 1011.3 - -
29/11:00pm 15.5 11.8 11.5 77 2.2 NNE 22 26 12 14 1011.3 - -
29/10:50pm 15.4 11.3 11.4 77 2.1 NNE 24 28 13 15 1011.3 - -
29/10:40pm 15.4 11.3 11.3 76 2.2 NNE 24 30 13 16 1011.2 - -
29/10:30pm 15.3 10.8 11.3 77 2.1 NNE 26 30 14 16 1011.2 - -
29/10:20pm 15.3 10.4 11.2 76 2.2 NE 28 32 15 17 1011.3 - -
29/10:10pm 15.3 10.3 11.1 76 2.2 NE 28 32 15 17 1011.4 - -
29/10:00pm 15.3 10.3 11.1 76 2.2 NE 28 32 15 17 1011.4 - -
29/09:50pm 15.2 9.9 11.1 76 2.2 NE 30 33 16 18 1011.6 - -
29/09:40pm 15.3 10.7 11.2 76 2.2 NE 26 30 14 16 1011.8 - -
29/09:30pm 15.4 10.8 11.0 75 2.3 NNE 26 30 14 16 1012.0 - -
29/09:10pm 15.3 11.5 11.0 75 2.3 NNE 22 26 12 14 1012.4 - -
29/09:00pm 15.3 11.1 11.1 76 2.2 NNE 24 30 13 16 1012.5 - -
29/08:50pm 15.4 11.6 11.2 76 2.2 NNE 22 26 12 14 1012.6 - -
29/08:40pm 15.4 11.6 11.1 75 2.3 NNE 22 28 12 15 1012.8 - -
29/08:30pm 15.4 11.9 11.0 75 2.3 NNE 20 26 11 14 1012.8 - -
29/08:20pm 15.4 11.9 10.8 74 2.4 NNE 20 24 11 13 1012.8 - -
29/08:10pm 15.3 11.7 10.7 74 2.4 NNE 20 24 11 13 1012.8 - -
29/08:00pm 15.3 11.8 10.8 74 2.4 NNE 20 24 11 13 1013.0 - -
29/07:50pm 15.4 11.8 10.7 73 2.5 NNE 20 24 11 13 1013.0 - -
29/07:40pm 15.4 11.9 10.3 71 2.7 NNE 19 22 10 12 1013.1 - -
29/07:30pm 15.2 11.7 10.3 72 2.6 NE 19 20 10 11 1013.2 - -
29/07:20pm 15.2 12.2 10.5 73 2.5 NE 17 20 9 11 1013.2 - -
29/07:10pm 15.0 12.3 10.5 74 2.4 NE 15 19 8 10 1013.1 - -
29/07:00pm 14.9 13.0 10.5 75 2.3 NE 11 17 6 9 1013.0 - -
29/06:50pm 14.8 13.3 10.7 76 2.2 NE 9 13 5 7 1012.9 - -
29/06:40pm 14.8 13.7 10.6 76 2.2 ENE 7 11 4 6 1012.8 - -
29/06:30pm 14.7 13.6 10.6 76 2.2 ENE 7 11 4 6 1012.8 - -
29/06:20pm 14.6 13.1 10.5 76 2.2 ENE 9 13 5 7 1012.8 - -
29/06:10pm 14.5 13.0 10.5 77 2.1 ENE 9 11 5 6 1012.7 - -
29/06:00pm 14.4 13.2 10.4 77 2.1 ENE 7 11 4 6 1012.5 - -
29/05:50pm 14.3 12.7 10.2 76 2.1 E 9 11 5 6 1012.5 - -
29/05:40pm 14.2 12.9 10.1 76 2.1 E 7 9 4 5 1012.3 - -
29/05:30pm 14.2 12.9 10.1 76 2.1 E 7 11 4 6 1012.3 - -
29/05:20pm 14.2 12.6 10.1 76 2.1 E 9 11 5 6 1012.1 - -
29/05:10pm 14.2 12.9 10.0 76 2.2 E 7 11 4 6 1012.0 - -
29/05:00pm 14.2 12.9 9.8 75 2.3 E 7 9 4 5 1011.8 - -
29/04:50pm 14.3 12.6 9.8 74 2.3 E 9 15 5 8 1011.8 - -
29/04:40pm 14.3 13.0 9.8 74 2.3 E 7 13 4 7 1011.7 - -
29/04:30pm 14.4 12.6 9.6 73 2.5 ESE 9 15 5 8 1011.7 - -
29/04:20pm 14.4 12.6 9.6 73 2.5 ESE 9 15 5 8 1011.6 - -
29/04:10pm 14.6 12.8 9.6 72 2.6 ESE 9 15 5 8 1011.6 - -
29/03:40pm 15.0 13.2 9.6 70 2.8 SSE 9 13 5 7 1011.4 - -
29/03:30pm 15.0 13.8 9.7 70 2.7 S 6 7 3 4 1011.3 - -
29/03:20pm 15.0 14.2 9.6 70 2.8 SSE 4 6 2 3 1011.2 - -
29/03:10pm 15.0 14.2 9.6 70 2.8 S 4 7 2 4 1011.2 - -
29/03:00pm 15.1 14.3 9.5 69 2.9 S 4 7 2 4 1011.1 - -
29/02:50pm 15.0 14.9 9.5 69 2.8 S 0 4 0 2 1011.0 - -
29/02:40pm 15.1 13.9 9.5 69 2.9 SSW 6 11 3 6 1011.0 - -
29/02:30pm 15.1 13.7 9.4 69 2.9 SSW 7 11 4 6 1010.9 - -
29/02:20pm 15.1 13.8 9.3 68 3.0 SSW 6 9 3 5 1010.8 - -
29/02:10pm 15.2 14.3 9.3 68 3.0 SSW 4 7 2 4 1010.9 - -
29/02:00pm 15.5 14.0 9.3 66 3.2 SSW 7 15 4 8 1010.8 - -
29/01:50pm 15.4 12.7 9.0 65 3.3 SSW 13 15 7 8 1010.9 - -
29/01:40pm 15.3 13.4 9.1 66 3.2 SSW 9 15 5 8 1010.9 - -
29/01:30pm 15.5 13.2 9.0 65 3.3 SSW 11 15 6 8 1010.9 - -
29/01:20pm 15.7 13.0 9.0 64 3.4 SSW 13 17 7 9 1010.6 - -
29/01:10pm 15.9 13.3 9.5 66 3.3 SW 13 19 7 10 1010.5 - -
29/01:00pm 16.1 12.8 9.4 64 3.5 SW 17 22 9 12 1010.6 - -
29/12:50pm 16.1 12.4 9.4 64 3.5 SW 19 24 10 13 1010.6 - -
29/12:40pm 16.2 12.3 9.5 64 3.5 SW 20 24 11 13 1010.7 - -
29/12:30pm 16.2 12.3 9.4 64 3.5 SW 20 24 11 13 1010.9 - -
29/12:20pm 16.2 12.3 9.4 64 3.5 SW 20 24 11 13 1010.9 - -
29/12:00pm 16.2 11.9 9.2 63 3.6 SW 22 28 12 15 1011.0 - -
29/11:50am 16.2 12.3 9.4 64 3.5 SW 20 26 11 14 1011.1 - -
29/11:40am 16.3 12.0 9.2 63 3.7 SW 22 30 12 16 1011.2 - -
29/11:30am 16.4 11.3 9.2 62 3.7 SW 26 30 14 16 1011.2 - -
29/11:20am 16.5 11.3 9.0 61 3.9 SW 26 33 14 18 1011.2 - -
29/11:10am 16.8 10.5 8.8 59 4.1 SW 32 37 17 20 1011.4 - -
29/11:00am 16.8 10.5 8.9 59 4.1 SW 32 39 17 21 1011.6 - -
29/10:50am 17.1 10.6 9.1 59 4.2 SW 33 39 18 21 1011.8 - -
29/10:40am 17.2 9.9 8.9 58 4.3 SSW 37 44 20 24 1011.8 - -
29/10:30am 17.4 10.1 8.9 57 4.4 SW 37 44 20 24 1011.8 - -
29/10:20am 17.7 11.7 8.8 56 4.6 SW 30 35 16 19 1012.0 - -
29/10:10am 17.8 12.2 8.8 55 4.7 SW 28 33 15 18 1012.2 - -
29/10:00am 18.0 14.0 9.2 56 4.6 WSW 20 26 11 14 1012.5 - -
29/09:40am 18.0 15.0 9.3 56 4.6 WSW 15 19 8 10 1012.9 - -
29/09:30am 18.0 15.0 9.3 56 4.6 WSW 15 20 8 11 1013.0 - -
29/09:20am 18.0 14.6 9.3 56 4.6 WSW 17 22 9 12 1012.9 - -
29/09:10am 18.0 14.3 9.4 57 4.5 WSW 19 22 10 12 1012.9 - -
29/09:00am 18.3 14.0 9.2 55 4.8 WSW 22 28 12 15 1012.8 - -
29/08:50am 18.3 14.3 9.2 55 4.8 W 20 24 11 13 1013.0 - -
29/08:40am 18.3 13.9 9.1 55 4.8 W 22 30 12 16 1013.0 - -
29/08:30am 18.3 13.5 9.0 54 4.9 WSW 24 30 13 16 1012.7 - -
29/08:20am 18.1 13.8 9.2 56 4.7 WSW 22 28 12 15 1012.8 - -
29/08:10am 18.1 13.7 8.9 55 4.8 WSW 22 28 12 15 1012.8 - -
29/08:00am 18.1 12.9 8.7 54 4.9 WSW 26 32 14 17 1012.6 - -
29/07:50am 18.1 12.1 8.7 54 4.9 WSW 30 37 16 20 1012.3 - -
29/07:40am 18.0 12.0 8.6 54 4.9 WSW 30 37 16 20 1012.2 - -
29/07:30am 18.0 11.6 8.6 54 4.9 WSW 32 39 17 21 1011.8 - -
29/07:20am 18.0 11.4 8.5 53 4.9 WSW 33 39 18 21 1011.7 - -
29/07:10am 18.1 12.1 8.8 54 4.8 WSW 30 39 16 21 1011.7 - -
29/07:00am 18.1 12.2 8.9 55 4.8 WSW 30 39 16 21 1011.7 - -
29/06:50am 18.1 12.1 8.8 54 4.8 WSW 30 39 16 21 1011.8 - -
29/06:40am 18.2 12.6 8.9 54 4.8 W 28 37 15 20 1011.6 - -
29/06:30am 18.1 12.9 8.8 54 4.8 W 26 32 14 17 1011.3 - -
29/06:20am 18.0 12.0 8.6 54 4.9 W 30 37 16 20 1011.4 - -
29/06:00am 17.9 11.5 8.6 54 4.8 W 32 39 17 21 1011.1 - -
29/05:50am 17.8 11.1 8.3 53 4.9 W 33 41 18 22 1010.8 - -
29/05:40am 17.5 10.4 8.2 54 4.8 W 35 43 19 23 1010.4 - -
29/05:30am 17.1 10.1 8.3 56 4.5 WSW 35 46 19 25 1010.1 - -
29/05:20am 16.6 8.8 8.3 58 4.2 WSW 39 48 21 26 1010.0 - -
29/05:10am 16.2 7.0 8.0 58 4.1 WSW 46 57 25 31 1009.5 - -
29/05:00am 15.8 6.9 7.8 59 4.0 WSW 44 54 24 29 1009.2 - -
29/04:50am 15.8 6.2 7.9 59 4.0 WSW 48 56 26 30 1008.9 - -
29/04:40am 15.7 7.1 8.3 61 3.7 WSW 43 54 23 29 1008.8 - -
29/04:30am 15.7 8.3 8.5 62 3.7 WSW 37 46 20 25 1008.8 - -
29/04:20am 15.6 8.3 8.9 64 3.4 WSW 37 46 20 25 1008.6 - -
29/04:10am 15.6 10.1 9.1 65 3.3 WSW 28 43 15 23 1008.8 - -
29/04:00am 15.7 10.6 9.1 65 3.4 WSW 26 33 14 18 1008.7 - -
29/03:50am 15.5 10.0 9.3 66 3.2 WSW 28 35 15 19 1008.4 - -
29/03:40am 15.4 9.5 9.2 66 3.2 SW 30 37 16 20 1008.1 - -
29/03:30am 15.4 9.9 9.2 66 3.2 WSW 28 35 15 19 1008.0 - -
29/03:20am 15.3 10.6 9.2 67 3.1 WSW 24 32 13 17 1008.0 - -
29/03:10am 15.3 9.4 9.0 66 3.2 WSW 30 35 16 19 1007.8 - -
29/03:00am 15.3 9.7 8.7 64 3.4 WSW 28 39 15 21 1007.9 - -
29/02:50am 15.2 9.1 8.1 62 3.6 WSW 30 41 16 22 1007.8 - -
29/02:40am 15.5 8.7 7.9 60 3.8 SW 33 43 18 23 1007.4 - -
29/02:30am 15.8 7.5 7.7 58 4.1 SW 41 46 22 25 1007.4 - -
29/02:10am 16.0 8.9 9.7 66 3.3 SW 37 50 20 27 1007.2 - -
29/02:00am 16.2 9.9 9.6 65 3.4 SW 33 43 18 23 1006.9 - -
29/01:50am 16.5 8.9 9.2 62 3.8 SW 39 48 21 26 1007.2 - -
29/01:40am 16.7 9.1 9.1 61 3.9 SW 39 48 21 26 1007.0 - -
29/01:30am 16.9 8.5 9.1 60 4.0 SW 43 50 23 27 1006.3 - -
29/01:20am 17.1 9.6 9.5 61 4.0 SW 39 48 21 26 1005.9 - -
29/01:10am 17.5 10.1 9.7 60 4.1 SW 39 46 21 25 1005.9 - -
29/01:00am 17.9 10.5 9.8 59 4.3 SW 39 50 21 27 1005.9 - -
29/12:50am 18.4 9.6 9.4 55 4.7 SSW 46 57 25 31 1005.8 - -
29/12:40am 18.9 10.8 10.8 59 4.4 SSW 44 56 24 30 1005.6 - -
29/12:30am 19.2 12.5 11.0 59 4.5 SW 37 48 20 26 1005.2 - -
29/12:20am 19.9 15.7 11.2 57 4.8 W 24 37 13 20 1004.7 - -
29/12:00am 19.2 12.5 11.1 59 4.4 NNW 37 46 20 25 1003.9 - -
 
Date/Time
EST
Temp
°C
App
Temp
°C
Dew
Point
Rel
Hum
%
Delta-T
°C
Wind Press
QNH
hPa
Press
MSL
hPa
Rain
since 9 am
mm
Dir
 
Spd
km/h
Gust
km/h
Spd
kts
Gust
kts
28/11:50pm 19.6 12.5 10.9 57 4.7 N 39 48 21 26 1003.7 - -
28/11:40pm 19.8 11.9 10.8 56 4.9 N 43 50 23 27 1003.7 - -
28/11:30pm 19.7 11.6 10.9 57 4.8 - 44 50 24 27 1003.7 - -
28/11:20pm 19.6 11.5 10.9 57 4.7 N 44 48 24 26 1003.8 - -
28/11:10pm 19.6 11.5 10.9 57 4.7 - 44 46 24 25 1004.0 - -
28/11:00pm 19.6 11.8 11.0 57 4.7 - 43 48 23 26 1004.2 - -
28/10:50pm 19.7 11.9 11.1 57 4.7 - 43 50 23 27 1004.3 - -
28/10:40pm 19.7 11.9 11.1 57 4.7 N 43 48 23 26 1004.4 - -
28/10:30pm 19.8 12.8 11.1 57 4.8 N 39 43 21 23 1004.6 - -
28/10:20pm 20.0 12.5 10.9 55 5.0 N 41 46 22 25 1004.6 - -
28/10:10pm 20.0 11.9 10.6 54 5.1 N 44 50 24 27 1004.4 - -
28/10:00pm 20.1 11.1 10.4 53 5.3 N 48 52 26 28 1004.4 - -
28/09:50pm 20.3 10.5 10.2 52 5.5 N 52 56 28 30 1004.4 - -
28/09:40pm 20.3 10.1 10.0 51 5.5 N 54 57 29 31 1004.5 - -
28/09:30pm 20.2 10.0 10.1 52 5.4 N 54 57 29 31 1004.7 - -
28/09:20pm 19.9 9.9 10.6 55 5.0 N 54 57 29 31 1004.8 - -
28/09:10pm 19.5 10.4 11.1 58 4.6 - 50 52 27 28 1005.0 - -
28/09:00pm 19.5 11.1 11.2 58 4.5 N 46 48 25 26 1005.2 - -
28/08:50pm 19.4 11.5 11.3 59 4.4 N 44 48 24 26 1005.4 - -
28/08:40pm 19.6 12.2 11.3 58 4.6 N 41 44 22 24 1005.8 - -
28/08:30pm 20.1 13.1 11.1 56 4.9 N 39 43 21 23 1006.0 - -
28/08:20pm 20.6 13.7 10.3 51 5.6 N 37 41 20 22 1006.1 - -
28/08:10pm 20.6 12.9 10.2 51 5.6 N 41 43 22 23 1006.1 - -
28/08:00pm 20.6 12.5 10.2 51 5.6 N 43 43 23 23 1006.2 - -
28/07:50pm 20.6 12.6 10.3 51 5.6 N 43 44 23 24 1006.4 - -
28/07:40pm 20.6 12.1 10.5 52 5.5 - 46 48 25 26 1006.5 - -
28/07:30pm 20.8 12.2 10.3 51 5.7 - 46 48 25 26 1006.5 - -
28/07:20pm 20.8 11.8 10.2 50 5.7 - 48 52 26 28 1006.4 - -
28/07:10pm 20.5 11.2 10.6 53 5.4 - 50 52 27 28 1006.4 - -
28/07:00pm 20.5 11.7 10.8 53 5.3 - 48 54 26 29 1006.5 - -
28/06:50pm 20.8 11.9 10.7 52 5.5 - 48 52 26 28 1006.6 - -
28/06:40pm 20.9 12.4 10.6 51 5.6 - 46 50 25 27 1006.6 - -
28/06:30pm 20.8 11.1 10.6 52 5.6 - 52 56 28 30 1006.1 - -
28/06:20pm 20.9 10.8 10.4 51 5.7 N 54 56 29 30 1005.7 - -
28/06:00pm 20.9 11.7 10.8 52 5.5 - 50 56 27 30 1006.2 - -
28/05:50pm 21.1 10.7 10.7 51 5.7 N 56 57 30 31 1006.0 - -
28/05:40pm 21.1 11.5 10.7 51 5.7 N 52 57 28 31 1006.0 - -
28/05:30pm 21.1 11.8 10.7 51 5.7 N 50 54 27 29 1005.9 - -
28/05:20pm 20.7 12.3 11.0 53 5.3 N 46 56 25 30 1006.0 - -
28/05:10pm 20.6 12.6 11.2 55 5.2 - 44 54 24 29 1006.0 - -
28/05:00pm 20.5 12.7 11.2 55 5.1 - 43 48 23 26 1006.2 - -
28/04:50pm 20.1 13.2 11.5 57 4.8 - 39 44 21 24 1006.3 - -
28/04:40pm 19.6 13.5 11.9 61 4.3 N 35 41 19 22 1006.3 - -
28/04:30pm 19.5 14.5 12.3 63 4.0 N 30 32 16 17 1006.2 - -
28/04:20pm 20.1 14.0 11.9 59 4.6 N 35 41 19 22 1006.3 - -
28/04:10pm 20.0 13.2 12.1 60 4.4 N 39 43 21 23 1006.2 - -
28/04:00pm 19.8 13.4 12.1 61 4.3 N 37 43 20 23 1006.2 - -
28/03:50pm 20.1 13.7 12.1 60 4.5 N 37 41 20 22 1006.4 - -
28/03:40pm 20.5 14.0 11.8 57 4.8 - 37 41 20 22 1006.8 - -
28/03:30pm 20.7 14.6 11.9 57 4.9 - 35 39 19 21 1007.1 - -
28/03:20pm 20.3 14.9 12.2 59 4.5 N 32 35 17 19 1007.2 - -
28/03:10pm 19.8 15.3 12.6 63 4.1 N 28 30 15 16 1007.4 - -
28/03:00pm 19.6 16.0 12.9 65 3.8 N 24 28 13 15 1007.5 - -
28/02:50pm 19.4 16.8 13.1 67 3.6 N 19 22 10 12 1007.5 - -
28/02:40pm 19.3 16.6 13.0 67 3.6 N 19 22 10 12 1007.5 - -
28/02:30pm 19.4 16.7 12.9 66 3.7 N 19 20 10 11 1007.6 - -
28/02:20pm 19.5 15.8 12.7 65 3.8 N 24 26 13 14 1007.6 - -
28/02:10pm 19.5 15.8 12.7 65 3.8 N 24 28 13 15 1007.7 - -
28/02:00pm 19.5 15.8 12.6 64 3.9 N 24 30 13 16 1007.9 - -
28/01:50pm 19.4 15.2 12.5 64 3.9 N 26 30 14 16 1008.0 - -
28/01:40pm 19.4 14.5 12.5 64 3.9 N 30 32 16 17 1008.0 - -
28/01:30pm 19.3 13.8 12.4 64 3.9 N 33 35 18 19 1007.8 - -
28/01:20pm 19.5 13.5 12.2 62 4.1 N 35 39 19 21 1007.6 - -
28/01:10pm 19.5 12.4 12.2 62 4.1 - 41 43 22 23 1007.7 - -
28/01:00pm 19.2 12.5 12.4 64 3.8 - 39 43 21 23 1007.9 - -
28/12:50pm 19.0 12.3 12.4 65 3.7 - 39 43 21 23 1008.0 - -
28/12:40pm 18.8 12.9 12.5 67 3.5 N 35 39 19 21 1008.3 - -
28/12:30pm 18.7 12.8 12.3 66 3.6 N 35 39 19 21 1008.4 - -
28/12:20pm 18.7 12.4 12.2 66 3.6 N 37 39 20 21 1008.5 - -
28/12:00pm 18.6 12.2 12.1 66 3.6 N 37 41 20 22 1009.3 - -
28/11:50am 18.5 12.5 12.2 66 3.5 N 35 37 19 20 1009.7 - -
28/11:40am 18.4 12.4 12.1 66 3.5 N 35 39 19 21 1009.9 - -
28/11:30am 18.4 12.7 11.9 66 3.6 N 33 37 18 20 1010.1 - -
28/11:20am 18.3 12.7 12.0 66 3.5 N 33 37 18 20 1010.3 - -
28/11:10am 18.3 12.6 11.8 66 3.6 N 33 37 18 20 1010.5 - -
28/11:00am 18.5 12.8 11.7 64 3.7 - 33 35 18 19 1010.8 - -
28/10:50am 18.6 12.9 11.8 64 3.7 - 33 35 18 19 1011.0 - -
28/10:40am 18.5 12.8 11.8 65 3.7 - 33 35 18 19 1011.2 - -
28/10:30am 18.4 12.9 11.8 65 3.6 - 32 35 17 19 1011.4 - -
28/10:20am 18.2 12.7 11.7 66 3.6 - 32 33 17 18 1011.7 - -
28/10:10am 18.1 12.5 11.6 66 3.6 - 32 35 17 19 1011.8 - -
28/10:00am 18.1 12.9 11.5 65 3.6 - 30 35 16 19 1012.0 - -
28/09:50am 18.0 12.8 11.5 66 3.6 - 30 33 16 18 1012.2 - -
28/09:40am 18.0 12.4 11.4 65 3.6 - 32 33 17 18 1012.3 - -
28/09:20am 17.9 12.2 11.2 65 3.6 - 32 37 17 20 1012.6 - -
28/09:10am 17.8 12.1 11.1 65 3.6 N 32 35 17 19 1012.8 - -
28/09:00am 17.8 12.1 11.1 65 3.6 - 32 35 17 19 1013.0 - -
28/08:50am 17.7 12.3 11.0 65 3.6 N 30 33 16 18 1013.2 - -
28/08:40am 17.7 12.3 11.0 65 3.6 - 30 33 16 18 1013.2 - -
28/08:30am 17.7 12.3 11.0 65 3.6 - 30 33 16 18 1013.3 - -
28/08:20am 17.6 11.8 10.9 65 3.6 - 32 33 17 18 1013.4 - -
28/08:10am 17.7 11.9 10.9 64 3.7 - 32 33 17 18 1013.6 - -

Other Formats:

Comma delimited format used in spreadsheet applications
http://www.bom.gov.au/fwo/IDV60801/IDV60801.55039.axf

JavaScript Object Notation format (JSON) in row-major order
http://www.bom.gov.au/fwo/IDV60801/IDV60801.55039.json